Time;durP1;ratioP1;P1;durP2;ratioP2;P2;SDS_P1;SDS_P2;PMS_P1;PMS_P2;Temp;Humidity;BMP_temperature;BMP_pressure;BME280_temperature;BME280_humidity;BME280_pressure;Samples;Min_cycle;Max_cycle;Signal;HPM_P1;HPM_P2
2023/06/10 00:02:17;;;;;;;11.32;8.63;;;;;;;12.26;100.00;96424.50;10535284;28;20190;-66
2023/06/10 00:07:17;;;;;;;12.38;9.15;;;;;;;12.24;100.00;96425.69;10534680;28;20227;-65
2023/06/10 00:12:20;;;;;;;12.57;10.40;;;;;;;12.40;100.00;96432.66;10535097;28;20649;-66
2023/06/10 00:17:23;;;;;;;11.98;8.98;;;;;;;12.52;100.00;96435.69;10534672;28;20221;-65
2023/06/10 00:22:24;;;;;;;11.65;8.82;;;;;;;12.48;100.00;96435.19;10536233;28;20191;-65
2023/06/10 00:27:26;;;;;;;10.13;8.77;;;;;;;12.36;100.00;96432.19;10542646;28;20291;-65
2023/06/10 00:32:27;;;;;;;11.98;10.15;;;;;;;12.31;100.00;96429.25;10523920;28;20193;-65
2023/06/10 00:37:30;;;;;;;10.90;9.48;;;;;;;12.34;100.00;96431.53;10522637;28;20251;-64
2023/06/10 00:42:30;;;;;;;12.73;9.68;;;;;;;12.26;100.00;96437.66;10523189;28;20281;-65
2023/06/10 00:47:31;;;;;;;12.05;9.75;;;;;;;12.26;100.00;96436.84;10541123;28;20327;-65
2023/06/10 00:52:31;;;;;;;10.38;9.23;;;;;;;12.21;100.00;96442.63;10523385;28;20186;-66
2023/06/10 00:57:32;;;;;;;11.35;8.65;;;;;;;12.07;100.00;96451.25;10541042;28;20210;-64
2023/06/10 01:02:32;;;;;;;10.60;9.50;;;;;;;12.12;100.00;96452.34;10540853;28;20650;-65
2023/06/10 01:08:02;;;;;;;10.73;9.40;;;;;;;12.24;100.00;96454.59;10540554;28;20218;-65
2023/06/10 01:13:03;;;;;;;14.02;9.65;;;;;;;12.21;100.00;96460.19;10540924;28;20589;-65
2023/06/10 01:18:09;;;;;;;12.48;9.35;;;;;;;12.21;100.00;96465.44;10522067;28;20230;-66
2023/06/10 01:23:10;;;;;;;10.55;8.45;;;;;;;12.17;100.00;96472.03;10540147;28;20202;-65
2023/06/10 01:28:21;;;;;;;11.65;9.65;;;;;;;12.08;100.00;96482.56;10540199;28;20229;-66
2023/06/10 01:33:27;;;;;;;9.18;8.10;;;;;;;11.98;100.00;96481.16;10520853;28;20605;-66
2023/06/10 01:38:33;;;;;;;9.27;8.27;;;;;;;11.92;100.00;96480.81;10538359;28;20221;-65
2023/06/10 01:43:34;;;;;;;9.60;8.60;;;;;;;11.87;100.00;96485.75;10520529;28;20252;-65
2023/06/10 01:48:35;;;;;;;14.23;9.60;;;;;;;11.72;100.00;96496.13;10583070;22;20233;-68
2023/06/10 01:53:35;;;;;;;11.05;9.75;;;;;;;11.60;100.00;96500.09;10580650;28;20680;-68
2023/06/10 01:58:35;;;;;;;12.35;10.23;;;;;;;11.62;100.00;96498.13;10580839;28;20205;-70
2023/06/10 02:03:36;;;;;;;12.20;10.02;;;;;;;11.65;100.00;96516.16;10562327;28;20321;-70
2023/06/10 02:08:36;;;;;;;13.70;9.43;;;;;;;11.64;100.00;96519.78;10580463;28;20206;-69
2023/06/10 02:13:38;;;;;;;13.60;9.60;;;;;;;11.65;100.00;96518.78;10580363;28;20190;-69
2023/06/10 02:18:42;;;;;;;10.68;9.55;;;;;;;11.58;100.00;96520.44;10580009;28;21017;-69
2023/06/10 02:23:43;;;;;;;11.07;9.77;;;;;;;11.52;100.00;96524.56;10579969;28;20185;-69
2023/06/10 02:28:43;;;;;;;10.23;9.20;;;;;;;11.45;100.00;96525.38;10579846;28;20252;-69
2023/06/10 02:33:44;;;;;;;11.85;10.50;;;;;;;11.44;100.00;96527.19;10561266;28;20193;-69
2023/06/10 02:38:45;;;;;;;14.98;9.68;;;;;;;11.49;100.00;96532.75;10579473;28;20632;-69
2023/06/10 02:43:46;;;;;;;10.95;9.20;;;;;;;11.49;100.00;96542.44;10560601;28;20264;-69
2023/06/10 02:48:46;;;;;;;10.65;9.63;;;;;;;11.36;100.00;96541.16;10514070;28;20262;-69
2023/06/10 02:53:53;;;;;;;12.70;10.30;;;;;;;11.25;100.00;96541.47;10493424;28;20240;-69
2023/06/10 02:58:54;;;;;;;11.33;8.90;;;;;;;11.21;100.00;96535.75;10493468;28;20264;-68
2023/06/10 03:03:56;;;;;;;10.70;9.43;;;;;;;11.23;100.00;96535.56;10493754;28;20249;-69
2023/06/10 03:08:56;;;;;;;11.40;9.15;;;;;;;11.14;100.00;96547.84;10492963;28;20234;-69
2023/06/10 03:13:57;;;;;;;11.80;9.73;;;;;;;11.04;100.00;96540.16;10493080;28;20187;-69
2023/06/10 03:18:59;;;;;;;12.65;9.82;;;;;;;11.01;100.00;96539.66;10492813;28;20284;-69
2023/06/10 03:23:59;;;;;;;11.43;9.43;;;;;;;11.05;100.00;96544.41;10492823;28;20620;-69
2023/06/10 03:29:00;;;;;;;12.00;9.50;;;;;;;11.15;100.00;96551.28;10492870;28;20345;-69
2023/06/10 03:34:00;;;;;;;11.10;9.53;;;;;;;11.31;100.00;96551.28;10493722;28;20186;-69
2023/06/10 03:39:01;;;;;;;10.65;9.55;;;;;;;11.31;100.00;96556.53;10492686;28;20207;-69
2023/06/10 03:44:03;;;;;;;10.47;9.17;;;;;;;11.32;100.00;96554.75;10492219;28;20211;-69
2023/06/10 03:49:04;;;;;;;14.20;10.15;;;;;;;11.35;100.00;96551.81;10525603;28;20237;-70
2023/06/10 03:54:05;;;;;;;12.25;10.02;;;;;;;11.26;100.00;96550.16;10517203;28;20277;-69
2023/06/10 03:59:06;;;;;;;10.43;9.37;;;;;;;11.18;100.00;96559.66;10521465;28;20759;-70
2023/06/10 04:04:08;;;;;;;13.43;10.53;;;;;;;11.33;100.00;96561.63;10525229;28;20308;-69
2023/06/10 04:09:09;;;;;;;12.50;9.73;;;;;;;11.46;100.00;96569.81;10524699;28;20217;-69
2023/06/10 04:14:11;;;;;;;11.53;9.43;;;;;;;11.53;100.00;96568.16;10524614;28;20183;-69
2023/06/10 04:19:13;;;;;;;10.20;9.20;;;;;;;11.74;100.00;96572.06;10524197;28;20213;-69
2023/06/10 04:24:14;;;;;;;16.50;9.80;;;;;;;11.81;100.00;96557.28;10524359;28;20226;-69
2023/06/10 04:29:16;;;;;;;13.32;9.77;;;;;;;11.94;100.00;96552.38;10524021;28;20211;-69
2023/06/10 04:34:17;;;;;;;12.65;8.52;;;;;;;12.07;100.00;96554.44;10542052;28;20524;-69
2023/06/10 04:39:18;;;;;;;10.48;8.07;;;;;;;12.32;100.00;96547.28;10524079;28;20571;-69
2023/06/10 04:44:19;;;;;;;10.80;8.98;;;;;;;12.49;100.00;96544.56;10523381;28;20210;-67
2023/06/10 04:49:19;;;;;;;9.95;8.60;;;;;;;12.65;100.00;96541.84;10498311;28;20235;-68
2023/06/10 04:54:20;;;;;;;8.98;8.07;;;;;;;13.06;100.00;96529.41;10498184;28;20274;-69
2023/06/10 04:59:21;;;;;;;9.93;7.90;;;;;;;13.28;100.00;96527.78;10499139;28;20235;-69
2023/06/10 05:04:21;;;;;;;9.57;8.50;;;;;;;13.47;100.00;96524.63;10498985;28;20246;-70
2023/06/10 05:09:21;;;;;;;9.27;8.07;;;;;;;13.86;100.00;96526.22;10537210;28;20214;-68
2023/06/10 05:14:22;;;;;;;8.40;7.53;;;;;;;14.22;100.00;96524.66;10540686;28;20273;-69
2023/06/10 05:19:22;;;;;;;12.77;7.53;;;;;;;14.65;100.00;96513.41;10540534;28;20234;-70
2023/06/10 05:24:23;;;;;;;10.75;7.13;;;;;;;15.06;100.00;96513.59;10540127;28;20222;-69
2023/06/10 05:29:23;;;;;;;9.98;6.95;;;;;;;15.54;100.00;96512.94;10539893;28;20721;-69
2023/06/10 05:34:23;;;;;;;6.85;6.20;;;;;;;15.91;100.00;96508.34;10539709;28;20652;-68
2023/06/10 05:39:24;;;;;;;8.10;7.07;;;;;;;16.02;100.00;96507.78;10539758;28;20591;-69
2023/06/10 05:44:24;;;;;;;8.75;6.47;;;;;;;16.40;100.00;96509.97;10539280;28;20258;-70
2023/06/10 05:49:25;;;;;;;5.90;5.20;;;;;;;17.20;100.00;96511.19;10574214;28;20233;-69
2023/06/10 05:54:26;;;;;;;8.73;5.53;;;;;;;17.54;100.00;96504.03;10581340;28;20225;-69
2023/06/10 05:59:26;;;;;;;5.38;4.88;;;;;;;18.01;100.00;96507.44;10580988;28;20221;-68
2023/06/10 06:04:26;;;;;;;7.15;4.90;;;;;;;18.63;100.00;96489.19;10580602;28;20282;-69
2023/06/10 06:09:27;;;;;;;6.05;4.72;;;;;;;19.19;95.00;96471.69;10580453;28;20205;-69
2023/06/10 06:14:31;;;;;;;6.88;4.30;;;;;;;19.54;88.55;96465.03;10596381;27;20260;-69
2023/06/10 06:19:31;;;;;;;4.75;4.15;;;;;;;19.56;86.62;96466.44;10622415;27;20205;-69
2023/06/10 06:24:31;;;;;;;7.20;4.70;;;;;;;19.73;83.51;96452.59;10622197;27;20675;-68
2023/06/10 06:29:32;;;;;;;5.20;4.70;;;;;;;20.74;79.70;96438.88;10622199;27;20609;-70
2023/06/10 06:34:33;;;;;;;6.95;4.95;;;;;;;21.33;78.26;96455.75;10600327;27;20621;-70
2023/06/10 06:39:33;;;;;;;9.07;5.57;;;;;;;22.00;71.71;96403.88;10595116;27;20220;-69
2023/06/10 06:44:33;;;;;;;5.75;5.00;;;;;;;21.95;72.02;96434.97;10621192;27;20248;-69
2023/06/10 06:49:34;;;;;;;5.70;5.15;;;;;;;21.65;73.47;96451.94;10620925;27;20236;-68
2023/06/10 06:54:35;;;;;;;6.68;5.35;;;;;;;20.91;76.43;96485.09;10617140;27;20197;-69
2023/06/10 06:59:36;;;;;;;7.60;5.72;;;;;;;20.44;79.07;96504.38;10599273;27;20205;-69
2023/06/10 07:04:36;;;;;;;8.90;4.95;;;;;;;20.24;81.41;96525.88;10616600;27;20269;-69
2023/06/10 07:09:37;;;;;;;7.47;5.20;;;;;;;19.87;81.88;96523.19;10571664;27;20212;-69
2023/06/10 07:14:38;;;;;;;7.03;5.55;;;;;;;19.71;82.24;96523.75;10575654;28;20185;-69
2023/06/10 07:19:38;;;;;;;8.40;5.30;;;;;;;19.60;84.54;96543.88;10575924;28;20228;-69
2023/06/10 07:24:38;;;;;;;7.22;5.30;;;;;;;20.30;81.13;96527.63;10574712;28;20304;-70
2023/06/10 07:29:39;;;;;;;6.78;5.50;;;;;;;20.38;79.80;96529.19;10574431;28;20638;-69
2023/06/10 07:34:39;;;;;;;7.18;4.97;;;;;;;20.63;81.05;96547.72;10609174;27;20623;-69
2023/06/10 07:39:40;;;;;;;8.98;5.30;;;;;;;20.79;79.90;96545.50;10631444;27;20213;-69
2023/06/10 07:44:40;;;;;;;6.00;5.25;;;;;;;21.13;77.60;96537.84;10560259;27;20252;-69
2023/06/10 07:49:41;;;;;;;5.50;5.00;;;;;;;21.35;77.62;96548.78;10594207;22;20240;-68
2023/06/10 07:54:42;;;;;;;5.97;4.80;;;;;;;20.56;79.51;96567.47;10589375;28;20343;-69
2023/06/10 07:59:44;;;;;;;8.80;5.03;;;;;;;20.97;80.82;96580.06;10596602;27;20833;-68
2023/06/10 08:04:44;;;;;;;7.05;5.82;;;;;;;20.35;82.28;96598.81;10587810;28;20721;-68
2023/06/10 08:09:44;;;;;;;6.32;5.72;;;;;;;20.31;91.25;96629.56;10580733;27;20233;-68
2023/06/10 08:14:45;;;;;;;7.80;6.75;;;;;;;19.03;100.00;96637.63;10588114;28;20230;-68
2023/06/10 08:19:45;;;;;;;8.85;7.40;;;;;;;18.85;100.00;96638.34;10587906;28;20218;-68
2023/06/10 08:24:45;;;;;;;10.80;7.55;;;;;;;18.59;100.00;96656.97;10587736;28;20218;-67
2023/06/10 08:29:46;;;;;;;11.48;7.70;;;;;;;18.44;100.00;96657.25;10587522;28;20292;-67
2023/06/10 08:34:46;;;;;;;10.90;8.40;;;;;;;17.75;100.00;96662.75;10588087;28;20220;-68
2023/06/10 08:39:46;;;;;;;14.52;9.48;;;;;;;17.09;100.00;96664.28;10588539;28;20224;-68
2023/06/10 08:44:49;;;;;;;10.10;7.88;;;;;;;16.52;100.00;96663.59;10584054;28;20217;-67
2023/06/10 08:49:49;;;;;;;11.05;8.93;;;;;;;16.35;100.00;96662.28;10563428;28;20757;-68
2023/06/10 08:54:59;;;;;;;16.70;11.90;;;;;;;16.54;100.00;96663.41;10545682;28;20238;-68
2023/06/10 09:00:00;;;;;;;10.20;8.52;;;;;;;17.06;100.00;96654.09;10571793;28;20259;-67
2023/06/10 09:05:04;;;;;;;9.68;8.70;;;;;;;18.45;100.00;96653.53;10580133;28;20760;-71
2023/06/10 09:10:06;;;;;;;10.00;8.10;;;;;;;18.67;100.00;96630.22;10581375;28;20683;-68
2023/06/10 09:15:07;;;;;;;11.63;7.90;;;;;;;18.48;100.00;96623.94;10579801;28;20734;-68
2023/06/10 09:20:08;;;;;;;8.88;7.85;;;;;;;18.44;100.00;96620.91;10562155;28;20252;-69
2023/06/10 09:25:10;;;;;;;12.00;8.68;;;;;;;18.36;100.00;96629.06;10581030;28;20221;-67
2023/06/10 09:30:24;;;;;;;9.52;8.27;;;;;;;19.06;100.00;96639.06;10580194;28;20613;-67
2023/06/10 09:35:26;;;;;;;11.55;8.73;;;;;;;20.12;100.00;96631.38;10580176;28;20182;-71
2023/06/10 09:40:27;;;;;;;8.25;7.13;;;;;;;21.03;96.24;96591.69;10586399;27;20206;-67
2023/06/10 09:45:31;;;;;;;11.88;7.40;;;;;;;22.29;91.76;96616.56;10579552;28;20217;-70
2023/06/10 09:50:34;;;;;;;8.90;6.32;;;;;;;24.43;79.16;96574.38;10579091;28;20340;-71
2023/06/10 09:55:37;;;;;;;6.32;5.25;;;;;;;26.03;69.83;96537.28;10577475;28;20174;-67
2023/06/10 10:00:38;;;;;;;7.95;5.53;;;;;;;26.70;66.28;96524.97;10580660;28;20585;-68
2023/06/10 10:05:38;;;;;;;8.60;5.03;;;;;;;27.56;62.10;96509.19;10558371;28;20207;-69
2023/06/10 10:10:38;;;;;;;5.80;5.17;;;;;;;27.47;59.94;96488.50;10496079;28;20468;-65
2023/06/10 10:15:41;;;;;;;11.40;6.07;;;;;;;26.69;62.58;96525.22;10495949;28;20456;-65
2023/06/10 10:20:52;;;;;;;8.43;5.10;;;;;;;27.01;61.72;96534.97;10478146;28;20462;-65
2023/06/10 10:25:54;;;;;;;7.43;5.32;;;;;;;26.31;60.86;96511.91;10477952;28;20226;-65
2023/06/10 10:30:59;;;;;;;6.78;5.30;;;;;;;26.63;62.60;96534.31;10477642;28;20187;-67
2023/06/10 10:36:00;;;;;;;5.70;4.80;;;;;;;26.75;60.91;96515.31;10486767;28;20209;-67
2023/06/10 10:41:00;;;;;;;7.30;4.78;;;;;;;26.65;61.31;96526.81;10518798;28;20195;-67
2023/06/10 10:46:03;;;;;;;5.20;4.68;;;;;;;26.82;60.32;96516.66;10536696;28;20250;-67
2023/06/10 10:51:03;;;;;;;10.18;5.28;;;;;;;25.85;60.32;96494.72;10536859;28;20195;-66
2023/06/10 10:56:09;;;;;;;5.78;4.45;;;;;;;25.63;63.19;96530.56;10536285;28;20816;-67
2023/06/10 11:01:14;;;;;;;8.18;4.72;;;;;;;26.41;61.27;96521.09;10518423;28;20198;-67
2023/06/10 11:06:15;;;;;;;7.95;5.13;;;;;;;26.85;59.33;96496.53;10535149;28;20700;-67
2023/06/10 11:11:27;;;;;;;5.25;4.72;;;;;;;26.69;57.59;96472.31;10536022;28;20190;-66
2023/06/10 11:16:28;;;;;;;7.97;4.95;;;;;;;28.26;53.29;96440.38;10535370;28;20213;-67
2023/06/10 11:21:28;;;;;;;7.20;4.38;;;;;;;28.43;51.62;96411.19;10528222;28;20183;-66
2023/06/10 11:26:34;;;;;;;11.47;4.33;;;;;;;28.87;49.96;96381.78;10535406;28;20688;-67
2023/06/10 11:32:22;;;;;;;8.48;3.95;;;;;;;26.26;51.86;96345.38;10540463;28;20447;-65
2023/06/10 11:37:23;;;;;;;6.95;4.30;;;;;;;27.58;53.18;96412.88;10524470;28;20219;-64
2023/06/10 11:42:23;;;;;;;9.88;4.55;;;;;;;27.22;52.25;96377.13;10516932;28;20198;-64
2023/06/10 11:47:23;;;;;;;5.57;4.07;;;;;;;28.88;46.67;96330.28;10546603;28;20279;-65
2023/06/10 11:52:32;;;;;;;6.97;4.22;;;;;;;28.99;46.38;96329.09;10577205;28;20439;-65
2023/06/10 11:57:35;;;;;;;6.30;4.35;;;;;;;28.53;48.28;96355.59;10576827;28;20692;-65
2023/06/10 12:02:35;;;;;;;6.15;4.43;;;;;;;28.02;48.43;96349.47;10576730;28;20190;-64
2023/06/10 12:07:35;;;;;;;9.57;4.53;;;;;;;28.94;46.24;96331.84;10576967;28;20229;-65
2023/06/10 12:12:36;;;;;;;8.10;4.47;;;;;;;29.62;44.43;96318.47;10576860;28;20562;-65
2023/06/10 12:17:37;;;;;;;4.93;4.10;;;;;;;28.39;47.32;96337.41;10577170;28;20976;-64
2023/06/10 12:22:42;;;;;;;8.15;3.92;;;;;;;29.94;43.83;96317.81;10584590;28;20182;-65
2023/06/10 12:27:53;;;;;;;5.45;4.20;;;;;;;29.66;42.29;96255.53;10582687;28;20214;-64
2023/06/10 12:32:55;;;;;;;7.68;4.05;;;;;;;29.24;42.87;96261.72;10580004;28;20247;-65
2023/06/10 12:38:06;;;;;;;7.60;4.80;;;;;;;28.61;46.21;96301.16;10579443;28;20201;-64
2023/06/10 12:43:07;;;;;;;7.43;3.92;;;;;;;28.79;45.17;96286.97;10580686;28;20216;-65
2023/06/10 12:48:09;;;;;;;5.73;3.67;;;;;;;28.87;43.18;96233.50;10583427;28;20300;-66
2023/06/10 12:53:14;;;;;;;6.85;4.18;;;;;;;30.27;42.42;96281.97;10583395;28;20439;-66
2023/06/10 12:58:15;;;;;;;9.40;3.92;;;;;;;30.09;42.43;96257.34;10583250;28;20210;-66
2023/06/10 13:03:16;;;;;;;6.68;4.22;;;;;;;30.45;43.49;96300.09;10582966;28;20232;-66
2023/06/10 13:08:16;;;;;;;5.20;4.32;;;;;;;29.47;42.19;96239.28;10582775;28;20209;-66
2023/06/10 13:13:17;;;;;;;8.43;4.37;;;;;;;29.26;44.65;96290.00;10582770;28;20182;-66
2023/06/10 13:18:18;;;;;;;5.47;4.03;;;;;;;29.02;41.85;96210.94;10582409;28;20515;-66
2023/06/10 13:23:19;;;;;;;6.35;4.57;;;;;;;30.26;40.11;96229.00;10582481;28;20194;-65
2023/06/10 13:28:19;;;;;;;4.80;4.30;;;;;;;31.33;40.07;96280.41;10581919;28;20730;-66
2023/06/10 13:33:21;;;;;;;4.72;4.05;;;;;;;31.36;38.37;96243.81;10580925;28;20844;-66
2023/06/10 13:38:22;;;;;;;5.75;4.22;;;;;;;31.36;39.52;96251.94;10581592;28;20218;-66
2023/06/10 13:43:22;;;;;;;5.17;4.40;;;;;;;31.18;39.14;96235.53;10581279;28;20270;-66
2023/06/10 13:48:23;;;;;;;5.50;3.70;;;;;;;32.60;35.89;96212.03;10591238;22;20495;-65
2023/06/10 13:53:23;;;;;;;7.88;4.57;;;;;;;33.13;34.70;96213.09;10578906;28;20446;-66
2023/06/10 13:58:24;;;;;;;4.07;3.77;;;;;;;31.10;36.39;96149.63;10580785;28;20237;-66
2023/06/10 14:03:24;;;;;;;7.33;3.70;;;;;;;32.91;34.83;96201.16;10580631;28;20435;-65
2023/06/10 14:08:24;;;;;;;6.18;4.10;;;;;;;30.18;36.20;96107.00;10580278;28;20585;-64
2023/06/10 14:13:25;;;;;;;5.20;3.77;;;;;;;33.46;32.70;96175.47;10580691;28;20262;-64
2023/06/10 14:18:25;;;;;;;5.87;4.03;;;;;;;32.44;34.05;96149.25;10579535;28;20494;-65
2023/06/10 14:23:26;;;;;;;8.43;3.78;;;;;;;32.94;34.57;96203.28;10579800;28;20438;-65
2023/06/10 14:28:27;;;;;;;7.22;3.72;;;;;;;31.76;35.88;96177.19;10579340;28;20232;-66
2023/06/10 14:33:28;;;;;;;7.85;3.65;;;;;;;30.46;33.25;96046.78;10579338;28;20193;-65
2023/06/10 14:38:28;;;;;;;4.20;3.28;;;;;;;32.31;30.41;96078.56;10579420;28;20697;-65
2023/06/10 14:43:28;;;;;;;7.77;3.57;;;;;;;32.75;30.49;96086.06;10578638;28;20205;-65
2023/06/10 14:48:29;;;;;;;7.40;3.77;;;;;;;33.20;31.32;96132.81;10578833;28;20482;-65
2023/06/10 14:53:29;;;;;;;5.23;3.73;;;;;;;31.77;29.70;96016.25;10578069;28;20443;-65
2023/06/10 14:58:29;;;;;;;4.63;3.73;;;;;;;31.73;30.20;96047.78;10577886;28;21025;-66
2023/06/10 15:03:30;;;;;;;4.47;3.55;;;;;;;31.77;29.16;96010.06;10577203;28;20434;-66
2023/06/10 15:08:31;;;;;;;5.03;3.83;;;;;;;32.00;30.95;96068.47;10577100;28;20233;-65
2023/06/10 15:13:31;;;;;;;8.23;4.30;;;;;;;31.71;31.93;96093.31;10577305;28;20449;-66
2023/06/10 15:18:32;;;;;;;5.10;4.03;;;;;;;31.59;33.41;96129.06;10576685;28;20212;-66
2023/06/10 15:23:32;;;;;;;6.28;4.70;;;;;;;32.17;31.86;96110.38;10576905;28;20444;-66
2023/06/10 15:28:32;;;;;;;4.37;3.97;;;;;;;31.69;33.37;96121.84;10576364;28;20301;-65
2023/06/10 15:33:33;;;;;;;6.97;4.33;;;;;;;32.66;31.38;96138.38;10576472;28;20443;-65
2023/06/10 15:38:33;;;;;;;5.57;4.07;;;;;;;32.24;32.37;96104.50;10576365;28;20462;-64
2023/06/10 15:43:33;;;;;;;8.23;4.57;;;;;;;31.77;32.51;96092.09;10576194;28;20471;-65
2023/06/10 15:48:34;;;;;;;6.00;4.53;;;;;;;31.55;33.21;96106.44;10576038;28;20487;-65
2023/06/10 15:53:34;;;;;;;5.60;4.50;;;;;;;31.44;34.00;96132.09;10578307;28;20487;-65
2023/06/10 15:58:34;;;;;;;5.63;4.87;;;;;;;28.90;36.04;96087.31;10584637;28;20988;-65
2023/06/10 16:03:35;;;;;;;5.73;4.87;;;;;;;29.41;36.06;96108.22;10584516;28;20431;-64
2023/06/10 16:08:36;;;;;;;10.38;4.28;;;;;;;29.29;38.31;96164.53;10584083;28;20490;-65
2023/06/10 16:13:37;;;;;;;5.78;5.25;;;;;;;28.89;38.13;96143.13;10584112;28;20253;-64
2023/06/10 16:18:37;;;;;;;5.40;4.60;;;;;;;27.38;40.44;96144.72;10583817;28;20578;-66
2023/06/10 16:23:38;;;;;;;9.55;5.82;;;;;;;26.62;43.35;96205.72;10583827;28;20216;-64
2023/06/10 16:28:39;;;;;;;8.73;5.25;;;;;;;27.16;42.60;96223.03;10583726;28;20722;-64
2023/06/10 16:33:39;;;;;;;7.47;5.20;;;;;;;26.68;47.54;96314.81;10583409;28;20292;-61
2023/06/10 16:38:40;;;;;;;16.52;6.38;;;;;;;23.08;66.59;96543.94;10583211;28;20443;-63
2023/06/10 16:43:40;;;;;;;6.35;5.75;;;;;;;21.92;73.76;96549.06;10583175;28;20217;-62
2023/06/10 16:48:44;;;;;;;12.68;7.05;;;;;;;20.81;75.59;96546.91;10582370;28;20305;-62
2023/06/10 16:53:44;;;;;;;8.07;6.78;;;;;;;20.88;74.60;96522.84;10582633;28;20182;-64
2023/06/10 16:58:45;;;;;;;9.02;6.50;;;;;;;21.51;73.52;96518.00;10582402;28;20233;-63
2023/06/10 17:03:45;;;;;;;12.98;6.30;;;;;;;21.82;68.81;96476.03;10581793;28;20202;-64
2023/06/10 17:08:45;;;;;;;9.23;6.47;;;;;;;22.34;70.26;96510.75;10581081;28;20289;-64
2023/06/10 17:13:46;;;;;;;8.13;6.25;;;;;;;22.63;75.18;96553.50;10582102;28;20222;-61
2023/06/10 17:18:46;;;;;;;6.93;6.18;;;;;;;23.22;76.73;96549.81;10582492;28;20206;-65
2023/06/10 17:23:46;;;;;;;7.25;5.70;;;;;;;23.83;73.29;96534.72;10581407;28;20236;-66
2023/06/10 17:28:47;;;;;;;6.40;5.80;;;;;;;23.89;75.38;96540.16;10581431;28;20654;-65
2023/06/10 17:33:47;;;;;;;5.80;5.20;;;;;;;23.74;71.44;96511.31;10562920;28;20526;-66
2023/06/10 17:38:48;;;;;;;12.20;5.95;;;;;;;23.52;73.59;96536.09;10580886;28;20213;-65
2023/06/10 17:43:48;;;;;;;7.38;5.25;;;;;;;23.41;73.04;96532.47;10580946;28;20222;-64
2023/06/10 17:48:48;;;;;;;6.82;5.05;;;;;;;23.31;74.46;96553.69;10580136;28;20244;-65
2023/06/10 17:53:50;;;;;;;10.95;5.20;;;;;;;22.92;70.78;96532.94;10580719;28;20189;-65
2023/06/10 17:58:50;;;;;;;5.72;5.00;;;;;;;22.36;71.19;96519.34;10580132;28;20691;-64
2023/06/10 18:03:50;;;;;;;6.78;5.03;;;;;;;22.09;69.56;96495.00;10580047;28;20190;-65
2023/06/10 18:08:51;;;;;;;8.85;5.72;;;;;;;21.26;76.51;96560.81;10579531;28;20264;-66
2023/06/10 18:13:51;;;;;;;6.63;5.40;;;;;;;21.35;76.96;96564.78;10579222;28;20190;-65
2023/06/10 18:18:52;;;;;;;9.65;6.38;;;;;;;21.14;79.81;96569.59;10578887;28;20229;-65
2023/06/10 18:23:52;;;;;;;6.90;6.07;;;;;;;20.72;83.21;96577.53;10578652;28;20189;-66
2023/06/10 18:28:53;;;;;;;8.15;6.85;;;;;;;20.36;84.59;96575.69;10578802;28;20209;-65
2023/06/10 18:33:53;;;;;;;10.07;6.72;;;;;;;19.96;93.20;96595.53;10578392;28;20193;-64
2023/06/10 18:38:54;;;;;;;10.57;6.90;;;;;;;19.66;100.00;96606.78;10578194;28;20750;-65
2023/06/10 18:44:01;;;;;;;7.72;6.53;;;;;;;19.22;100.00;96613.88;10577976;28;20653;-66
2023/06/10 18:49:01;;;;;;;10.48;6.72;;;;;;;18.76;100.00;96617.50;10577281;28;20329;-64
2023/06/10 18:54:02;;;;;;;9.75;6.40;;;;;;;18.45;98.00;96609.28;10577785;28;20281;-64
2023/06/10 18:59:03;;;;;;;8.07;6.00;;;;;;;17.66;99.97;96618.94;10577230;28;20757;-65
2023/06/10 19:04:03;;;;;;;7.10;6.40;;;;;;;17.44;100.00;96637.69;10577229;28;20238;-64
2023/06/10 19:09:04;;;;;;;18.05;10.95;;;;;;;17.32;100.00;96649.88;10576983;28;20249;-64
2023/06/10 19:14:04;;;;;;;10.85;7.28;;;;;;;16.93;100.00;96654.84;10576661;28;20186;-64
2023/06/10 19:19:05;;;;;;;12.23;7.40;;;;;;;16.68;100.00;96649.22;10576707;28;20280;-63
2023/06/10 19:24:05;;;;;;;12.63;8.32;;;;;;;16.59;100.00;96666.28;10576573;28;20205;-64
2023/06/10 19:29:06;;;;;;;13.48;9.18;;;;;;;16.35;100.00;96676.28;10575829;28;20683;-64
2023/06/10 19:34:06;;;;;;;10.70;8.52;;;;;;;16.12;100.00;96678.38;10576392;28;20276;-63
2023/06/10 19:39:06;;;;;;;11.63;7.85;;;;;;;16.01;100.00;96683.19;10576246;28;20205;-64
2023/06/10 19:44:07;;;;;;;11.75;7.28;;;;;;;15.92;100.00;96683.53;10576498;28;20208;-64
2023/06/10 19:49:07;;;;;;;12.65;7.97;;;;;;;15.77;100.00;96686.19;10595366;22;20233;-68
2023/06/10 19:54:07;;;;;;;9.98;7.47;;;;;;;15.59;100.00;96687.47;10574250;28;20328;-68
2023/06/10 19:59:08;;;;;;;11.77;7.88;;;;;;;15.50;100.00;96680.69;10576697;28;20212;-68
2023/06/10 20:04:08;;;;;;;11.10;7.80;;;;;;;15.37;100.00;96688.47;10577096;28;20190;-67
2023/06/10 20:09:10;;;;;;;10.63;7.72;;;;;;;15.21;100.00;96700.09;10576773;28;20332;-67
2023/06/10 20:14:10;;;;;;;11.32;7.88;;;;;;;15.10;100.00;96707.47;10577200;28;20186;-67
2023/06/10 20:19:10;;;;;;;9.40;7.57;;;;;;;14.97;100.00;96700.19;10576469;28;20209;-67
2023/06/10 20:24:11;;;;;;;9.85;8.20;;;;;;;14.93;100.00;96703.38;10576885;28;20225;-67
2023/06/10 20:29:11;;;;;;;12.90;8.85;;;;;;;14.86;100.00;96705.16;10576501;28;20279;-67
2023/06/10 20:34:12;;;;;;;10.38;8.02;;;;;;;14.73;100.00;96711.88;10576543;28;20196;-67
2023/06/10 20:39:12;;;;;;;8.95;7.65;;;;;;;14.60;100.00;96709.03;10577858;28;20752;-66
2023/06/10 20:44:13;;;;;;;11.43;8.00;;;;;;;14.48;100.00;96718.38;10583882;28;20205;-66
2023/06/10 20:49:14;;;;;;;11.82;7.40;;;;;;;14.39;100.00;96718.44;10583776;28;20230;-67
2023/06/10 20:54:14;;;;;;;9.98;8.20;;;;;;;14.35;100.00;96726.91;10583460;28;20617;-67
2023/06/10 20:59:14;;;;;;;10.63;8.00;;;;;;;14.21;100.00;96728.50;10583508;28;20688;-67
2023/06/10 21:04:15;;;;;;;11.40;7.97;;;;;;;14.11;100.00;96726.16;10583368;28;20236;-66
2023/06/10 21:09:15;;;;;;;14.18;8.55;;;;;;;13.90;100.00;96726.81;10582644;28;20221;-66
2023/06/10 21:14:15;;;;;;;9.50;8.02;;;;;;;13.82;100.00;96732.16;10583054;28;20189;-67
2023/06/10 21:19:16;;;;;;;9.23;8.05;;;;;;;13.71;100.00;96731.56;10582297;28;20212;-66
2023/06/10 21:24:16;;;;;;;11.52;8.23;;;;;;;13.56;100.00;96738.59;10582778;28;20200;-66
2023/06/10 21:29:17;;;;;;;15.57;7.70;;;;;;;13.42;100.00;96739.34;10581992;28;20305;-66
2023/06/10 21:34:17;;;;;;;10.45;7.63;;;;;;;13.41;100.00;96732.44;10582151;28;20197;-66
2023/06/10 21:39:17;;;;;;;9.02;6.55;;;;;;;13.27;100.00;96747.91;10581856;28;20218;-66
2023/06/10 21:44:18;;;;;;;13.18;7.45;;;;;;;13.19;100.00;96753.22;10581327;28;20224;-66
2023/06/10 21:49:18;;;;;;;9.85;7.40;;;;;;;13.05;100.00;96757.41;10581260;28;20238;-66
2023/06/10 21:54:19;;;;;;;13.50;7.30;;;;;;;12.99;100.00;96763.34;10580253;28;20221;-66
2023/06/10 21:59:22;;;;;;;9.27;6.80;;;;;;;12.89;100.00;96768.78;10581139;28;20209;-66
2023/06/10 22:04:23;;;;;;;9.70;7.20;;;;;;;12.82;100.00;96760.78;10580815;28;20198;-66
2023/06/10 22:09:23;;;;;;;11.13;7.43;;;;;;;12.73;100.00;96763.59;10580448;28;20209;-67
2023/06/10 22:14:23;;;;;;;14.93;7.30;;;;;;;12.61;100.00;96758.69;10580504;28;20743;-67
2023/06/10 22:19:24;;;;;;;7.85;6.43;;;;;;;12.52;100.00;96751.81;10579992;28;20222;-66
2023/06/10 22:24:24;;;;;;;7.82;6.63;;;;;;;12.43;100.00;96758.06;10580244;28;20196;-66
2023/06/10 22:29:25;;;;;;;16.75;6.53;;;;;;;12.24;100.00;96764.50;10579620;28;20229;-66
2023/06/10 22:34:25;;;;;;;10.02;6.00;;;;;;;12.27;100.00;96758.94;10579551;28;20194;-66
2023/06/10 22:39:25;;;;;;;7.97;6.40;;;;;;;12.23;100.00;96752.34;10579183;28;20675;-66
2023/06/10 22:44:26;;;;;;;7.60;6.15;;;;;;;12.15;100.00;96749.75;10578957;28;20702;-66
2023/06/10 22:49:26;;;;;;;14.27;6.80;;;;;;;12.15;100.00;96750.56;10578992;28;20720;-67
2023/06/10 22:54:27;;;;;;;7.63;5.97;;;;;;;12.01;100.00;96752.03;10579081;28;20200;-67
2023/06/10 22:59:27;;;;;;;10.85;6.15;;;;;;;11.85;100.00;96744.97;10578761;28;20233;-67
2023/06/10 23:04:27;;;;;;;8.32;6.03;;;;;;;11.83;100.00;96743.47;10578735;28;20700;-66